Time,TemperatureF,DewpointF,PressureIn,WindDirection,WindDirectionDegrees,WindSpeedMPH,WindSpeedGustMPH,Humidity,HourlyPrecipIn,Conditions,Clouds,dailyrainin,SolarRadiationWatts/m^2,SoftwareType,DateUTC
2013-05-20 00:01:00,50.0,50.0,-100.00,North,1,0.0,0.0,99,0.08,,,0.83,0.000000,,2013-05-20 06:01:00,
2013-05-20 00:11:00,50.0,50.0,-100.00,North,1,0.0,0.0,99,0.08,,,0.83,0.000000,,2013-05-20 06:11:00,
2013-05-20 00:21:00,50.0,50.0,-100.00,North,1,0.0,0.0,99,0.08,,,0.83,0.000000,,2013-05-20 06:21:00,
2013-05-20 00:52:00,50.0,50.0,-100.00,North,3,0.0,0.0,99,0.11,,,0.69,0.000000,,2013-05-20 06:52:00,
2013-05-20 01:02:00,50.0,50.0,-100.00,North,3,0.0,0.0,99,0.11,,,0.69,0.000000,,2013-05-20 07:02:00,
2013-05-20 01:12:00,50.0,50.0,-100.00,North,3,0.0,0.0,99,0.11,,,0.69,0.000000,,2013-05-20 07:12:00,
2013-05-20 01:21:00,50.0,50.0,-100.00,North,3,0.0,0.0,99,0.11,,,0.69,0.000000,,2013-05-20 07:21:00,
2013-05-20 01:52:00,48.0,48.0,-100.00,North,7,0.0,0.0,99,0.09,,,0.74,0.000000,,2013-05-20 07:52:00,
2013-05-20 02:01:00,48.0,48.0,-100.00,North,7,0.0,0.0,99,0.09,,,0.74,0.000000,,2013-05-20 08:01:00,
2013-05-20 02:11:00,48.0,48.0,-100.00,North,7,0.0,0.0,99,0.09,,,0.74,0.000000,,2013-05-20 08:11:00,
2013-05-20 02:21:00,48.0,48.0,-100.00,North,7,0.0,0.0,99,0.09,,,0.74,0.000000,,2013-05-20 08:21:00,
2013-05-20 02:52:00,48.0,48.0,-100.00,North,9,0.0,0.0,99,0.21,,,0.94,0.000000,,2013-05-20 08:52:00,
2013-05-20 03:02:00,48.0,48.0,-100.00,North,9,0.0,0.0,99,0.21,,,0.94,0.000000,,2013-05-20 09:02:00,
2013-05-20 03:12:00,48.0,48.0,-100.00,North,9,0.0,0.0,99,0.21,,,0.94,0.000000,,2013-05-20 09:12:00,
2013-05-20 03:21:00,48.0,48.0,-100.00,North,9,0.0,0.0,99,0.21,,,0.94,0.000000,,2013-05-20 09:21:00,
2013-05-20 03:53:00,48.0,48.0,-100.00,North,6,0.0,0.0,99,0.05,,,0.99,0.000000,,2013-05-20 09:53:00,
2013-05-20 04:03:00,48.0,48.0,-100.00,North,6,0.0,0.0,99,0.05,,,0.99,0.000000,,2013-05-20 10:03:00,
2013-05-20 04:12:00,48.0,48.0,-100.00,North,6,0.0,0.0,99,0.05,,,0.99,0.000000,,2013-05-20 10:12:00,
2013-05-20 04:22:00,48.0,48.0,-100.00,North,6,0.0,0.0,99,0.05,,,0.99,0.000000,,2013-05-20 10:22:00,
2013-05-20 04:42:00,49.0,49.0,-100.00,North,9,0.0,0.0,99,0.04,,,1.03,0.000000,,2013-05-20 10:42:00,
2013-05-20 04:52:00,49.0,49.0,-100.00,North,9,0.0,0.0,99,0.04,,,1.03,0.000000,,2013-05-20 10:52:00,
2013-05-20 05:02:00,49.0,49.0,-100.00,North,9,0.0,0.0,99,0.04,,,1.03,0.000000,,2013-05-20 11:02:00,
2013-05-20 05:12:00,49.0,49.0,-100.00,North,9,0.0,0.0,99,0.04,,,1.03,0.000000,,2013-05-20 11:12:00,
2013-05-20 05:21:00,49.0,49.0,-100.00,North,9,0.0,0.0,99,0.04,,,1.03,0.000000,,2013-05-20 11:21:00,
2013-05-20 05:42:00,47.0,47.0,-100.00,North,11,0.0,0.0,99,0.03,,,1.06,0.000000,,2013-05-20 11:42:00,
2013-05-20 05:52:00,47.0,47.0,-100.00,North,11,0.0,0.0,99,0.03,,,1.06,0.000000,,2013-05-20 11:52:00,
2013-05-20 06:01:00,47.0,47.0,-100.00,North,11,0.0,0.0,99,0.03,,,1.06,0.000000,,2013-05-20 12:01:00,
2013-05-20 06:11:00,47.0,47.0,-100.00,North,11,0.0,0.0,99,0.03,,,1.06,0.000000,,2013-05-20 12:11:00,
2013-05-20 06:21:00,47.0,47.0,-100.00,North,11,0.0,0.0,99,0.03,,,1.06,0.000000,,2013-05-20 12:21:00,
2013-05-20 06:52:00,47.0,47.0,-100.00,North,0,0.0,0.0,99,0.02,,,1.08,3.000000,,2013-05-20 12:52:00,
2013-05-20 07:01:00,47.0,47.0,-100.00,North,0,0.0,0.0,99,0.02,,,1.08,3.000000,,2013-05-20 13:01:00,
2013-05-20 07:11:00,47.0,47.0,-100.00,North,0,0.0,0.0,99,0.02,,,1.08,3.000000,,2013-05-20 13:11:00,
2013-05-20 07:22:00,47.0,47.0,-100.00,North,0,0.0,0.0,99,0.02,,,1.08,3.000000,,2013-05-20 13:22:00,
2013-05-20 07:52:00,47.0,47.0,-100.00,North,4,0.0,0.0,99,0.03,,,1.10,14.000000,,2013-05-20 13:52:00,
2013-05-20 08:01:00,47.0,47.0,-100.00,North,4,0.0,0.0,99,0.03,,,1.10,14.000000,,2013-05-20 14:01:00,
2013-05-20 08:11:00,47.0,47.0,-100.00,North,4,0.0,0.0,99,0.03,,,1.10,14.000000,,2013-05-20 14:11:00,
2013-05-20 08:22:00,47.0,47.0,-100.00,North,4,0.0,0.0,99,0.03,,,1.10,14.000000,,2013-05-20 14:22:00,
2013-05-20 08:52:00,47.0,47.0,-100.00,North,8,0.0,0.0,99,0.03,,,1.13,55.000000,,2013-05-20 14:52:00,
2013-05-20 09:01:00,47.0,47.0,-100.00,North,8,0.0,0.0,99,0.03,,,1.13,55.000000,,2013-05-20 15:01:00,
2013-05-20 09:11:00,47.0,47.0,-100.00,North,8,0.0,0.0,99,0.03,,,1.13,55.000000,,2013-05-20 15:11:00,
2013-05-20 09:21:00,47.0,47.0,-100.00,North,8,0.0,0.0,99,0.03,,,1.13,55.000000,,2013-05-20 15:21:00,
2013-05-20 09:53:00,49.0,49.0,-100.00,North,8,0.0,0.0,99,0.02,,,-99.99,87.000000,,2013-05-20 15:53:00,
2013-05-20 10:03:00,49.0,49.0,-100.00,North,8,0.0,0.0,99,0.02,,,-99.99,87.000000,,2013-05-20 16:03:00,
2013-05-20 10:12:00,49.0,49.0,-100.00,North,8,0.0,0.0,99,0.02,,,-99.99,87.000000,,2013-05-20 16:12:00,
2013-05-20 10:22:00,49.0,49.0,-100.00,North,8,0.0,0.0,99,0.02,,,-99.99,87.000000,,2013-05-20 16:22:00,
2013-05-20 10:53:00,48.0,48.0,-100.00,NNE,13,0.0,0.0,99,0.02,,,1.17,118.000000,,2013-05-20 16:53:00,
2013-05-20 11:02:00,48.0,48.0,-100.00,NNE,13,0.0,0.0,99,0.02,,,1.17,118.000000,,2013-05-20 17:02:00,
2013-05-20 11:12:00,48.0,48.0,-100.00,NNE,13,0.0,0.0,99,0.02,,,1.17,118.000000,,2013-05-20 17:12:00,
2013-05-20 11:22:00,48.0,48.0,-100.00,NNE,13,0.0,0.0,99,0.02,,,1.17,118.000000,,2013-05-20 17:22:00,
2013-05-20 11:45:00,48.0,48.0,-100.00,North,6,0.0,0.0,99,0.03,,,1.20,100.000000,,2013-05-20 17:45:00,
2013-05-20 11:53:00,48.0,48.0,-100.00,North,6,0.0,0.0,99,0.03,,,1.20,100.000000,,2013-05-20 17:53:00,
2013-05-20 12:02:00,48.0,48.0,-100.00,North,6,0.0,0.0,99,0.03,,,1.20,100.000000,,2013-05-20 18:02:00,
2013-05-20 12:12:00,48.0,48.0,-100.00,North,6,0.0,0.0,99,0.03,,,1.20,100.000000,,2013-05-20 18:12:00,
2013-05-20 12:23:00,48.0,48.0,-100.00,North,6,0.0,0.0,99,0.03,,,1.20,100.000000,,2013-05-20 18:23:00,
2013-05-20 12:42:00,50.0,50.0,-100.00,North,5,0.0,0.0,99,0.03,,,1.23,156.000000,,2013-05-20 18:42:00,
2013-05-20 12:55:00,50.0,50.0,-100.00,North,5,0.0,0.0,99,0.03,,,1.23,156.000000,,2013-05-20 18:55:00,
2013-05-20 13:04:00,50.0,50.0,-100.00,North,5,0.0,0.0,99,0.03,,,1.23,156.000000,,2013-05-20 19:04:00,
2013-05-20 13:11:00,50.0,50.0,-100.00,North,5,0.0,0.0,99,0.03,,,1.23,156.000000,,2013-05-20 19:11:00,
2013-05-20 13:21:00,50.0,50.0,-100.00,North,5,0.0,0.0,99,0.03,,,1.23,156.000000,,2013-05-20 19:21:00,
2013-05-20 13:52:00,50.0,50.0,-100.00,North,6,0.0,0.0,99,0.03,,,1.26,165.000000,,2013-05-20 19:52:00,
2013-05-20 14:01:00,50.0,50.0,-100.00,North,6,0.0,0.0,99,0.03,,,1.26,165.000000,,2013-05-20 20:01:00,
2013-05-20 14:12:00,50.0,50.0,-100.00,North,6,0.0,0.0,99,0.03,,,1.26,165.000000,,2013-05-20 20:12:00,
2013-05-20 14:21:00,50.0,50.0,-100.00,North,6,0.0,0.0,99,0.03,,,1.26,165.000000,,2013-05-20 20:21:00,
2013-05-20 14:52:00,50.0,50.0,-100.00,North,8,0.0,0.0,99,0.05,,,1.31,149.000000,,2013-05-20 20:52:00,
2013-05-20 15:01:00,50.0,50.0,-100.00,North,8,0.0,0.0,99,0.05,,,1.31,149.000000,,2013-05-20 21:01:00,
2013-05-20 15:11:00,50.0,50.0,-100.00,North,8,0.0,0.0,99,0.05,,,1.31,149.000000,,2013-05-20 21:11:00,
2013-05-20 15:21:00,50.0,50.0,-100.00,North,8,0.0,0.0,99,0.05,,,1.31,149.000000,,2013-05-20 21:21:00,
2013-05-20 15:43:00,49.0,49.0,-100.00,North,0,0.0,0.0,99,0.04,,,1.35,163.000000,,2013-05-20 21:43:00,
2013-05-20 15:53:00,49.0,49.0,-100.00,North,0,0.0,0.0,99,0.04,,,1.35,163.000000,,2013-05-20 21:53:00,
2013-05-20 16:02:00,49.0,49.0,-100.00,North,0,0.0,0.0,99,0.04,,,1.35,163.000000,,2013-05-20 22:02:00,
2013-05-20 16:12:00,49.0,49.0,-100.00,North,0,0.0,0.0,99,0.04,,,1.35,163.000000,,2013-05-20 22:12:00,
2013-05-20 16:23:00,49.0,49.0,-100.00,North,0,0.0,0.0,99,0.04,,,1.35,163.000000,,2013-05-20 22:23:00,
2013-05-20 16:52:00,50.0,50.0,-100.00,NNW,345,0.0,0.0,99,0.03,,,1.38,131.000000,,2013-05-20 22:52:00,
2013-05-20 17:03:00,50.0,50.0,-100.00,NNW,345,0.0,0.0,99,0.03,,,1.38,131.000000,,2013-05-20 23:03:00,
2013-05-20 17:12:00,50.0,50.0,-100.00,NNW,345,0.0,0.0,99,0.03,,,1.38,131.000000,,2013-05-20 23:12:00,
2013-05-20 17:22:00,50.0,50.0,-100.00,NNW,345,0.0,0.0,99,0.03,,,1.38,131.000000,,2013-05-20 23:22:00,
2013-05-20 17:53:00,51.0,51.0,-100.00,North,7,0.0,0.0,99,0.06,,,1.43,93.000000,,2013-05-20 23:53:00,
2013-05-20 18:01:00,51.0,51.0,-100.00,North,7,0.0,0.0,99,0.06,,,1.43,93.000000,,2013-05-21 00:01:00,
2013-05-20 18:11:00,51.0,51.0,-100.00,North,7,0.0,0.0,99,0.06,,,1.43,93.000000,,2013-05-21 00:11:00,
2013-05-20 18:21:00,51.0,51.0,-100.00,North,7,0.0,0.0,99,0.06,,,1.43,93.000000,,2013-05-21 00:21:00,
2013-05-20 18:52:00,52.0,51.0,-100.00,NNE,12,0.0,0.0,97,0.02,,,1.43,49.000000,,2013-05-21 00:52:00,
2013-05-20 19:01:00,52.0,51.0,-100.00,NNE,12,0.0,0.0,97,0.02,,,1.43,49.000000,,2013-05-21 01:01:00,
2013-05-20 19:11:00,52.0,51.0,-100.00,NNE,12,0.0,0.0,97,0.02,,,1.43,49.000000,,2013-05-21 01:11:00,
2013-05-20 19:22:00,52.0,51.0,-100.00,NNE,12,0.0,0.0,97,0.02,,,1.43,49.000000,,2013-05-21 01:22:00,
2013-05-20 19:53:00,50.0,49.0,-100.00,NNE,27,0.0,0.0,96,0.00,,,1.35,35.000000,,2013-05-21 01:53:00,
2013-05-20 20:02:00,50.0,49.0,-100.00,NNE,27,0.0,0.0,96,0.00,,,1.35,35.000000,,2013-05-21 02:02:00,
2013-05-20 20:11:00,50.0,49.0,-100.00,NNE,27,0.0,0.0,96,0.00,,,1.35,35.000000,,2013-05-21 02:11:00,
2013-05-20 20:21:00,50.0,49.0,-100.00,NNE,27,0.0,0.0,96,0.00,,,1.35,35.000000,,2013-05-21 02:21:00,
2013-05-20 20:42:00,50.0,48.0,-100.00,NNE,26,0.0,0.0,94,0.00,,,1.23,9.000000,,2013-05-21 02:42:00,
2013-05-20 20:52:00,50.0,48.0,-100.00,NNE,26,0.0,0.0,94,0.00,,,1.23,9.000000,,2013-05-21 02:52:00,
2013-05-20 21:02:00,50.0,48.0,-100.00,NNE,26,0.0,0.0,94,0.00,,,1.23,9.000000,,2013-05-21 03:02:00,
2013-05-20 21:11:00,50.0,48.0,-100.00,NNE,26,0.0,0.0,94,0.00,,,1.23,9.000000,,2013-05-21 03:11:00,
2013-05-20 21:21:00,50.0,48.0,-100.00,NNE,26,0.0,0.0,94,0.00,,,1.23,9.000000,,2013-05-21 03:21:00,
2013-05-20 21:53:00,49.0,48.0,-100.00,NNW,333,0.0,0.0,95,0.00,,,1.11,0.000000,,2013-05-21 03:53:00,
2013-05-20 22:03:00,49.0,48.0,-100.00,NNW,333,0.0,0.0,95,0.00,,,1.11,0.000000,,2013-05-21 04:03:00,
2013-05-20 22:13:00,49.0,48.0,-100.00,NNW,333,0.0,0.0,95,0.00,,,1.11,0.000000,,2013-05-21 04:13:00,
2013-05-20 22:23:00,49.0,48.0,-100.00,NNW,333,0.0,0.0,95,0.00,,,1.11,0.000000,,2013-05-21 04:23:00,
2013-05-20 22:53:00,50.0,50.0,-100.00,WNW,294,0.0,0.0,99,0.00,,,1.02,0.000000,,2013-05-21 04:53:00,
2013-05-20 23:02:00,50.0,50.0,-100.00,WNW,294,0.0,0.0,99,0.00,,,1.02,0.000000,,2013-05-21 05:02:00,
2013-05-20 23:12:00,50.0,50.0,-100.00,WNW,294,0.0,0.0,99,0.00,,,1.02,0.000000,,2013-05-21 05:12:00,
2013-05-20 23:22:00,50.0,50.0,-100.00,WNW,294,0.0,0.0,99,0.00,,,1.02,0.000000,,2013-05-21 05:22:00,
2013-05-20 23:52:00,51.0,50.0,-100.00,WNW,288,0.0,0.0,98,0.00,,,0.94,0.000000,,2013-05-21 05:52:00,